sensor_id;sensor_type;location;lat;lon;timestamp;P1;durP1;ratioP1;P2;durP2;ratioP2
11935;SDS011;6027;48.576;9.180;2023-07-02T00:02:15;7.88;;;7.40;;
11935;SDS011;6027;48.576;9.180;2023-07-02T00:04:44;8.45;;;7.95;;
11935;SDS011;6027;48.576;9.180;2023-07-02T00:07:09;7.05;;;6.53;;
11935;SDS011;6027;48.576;9.180;2023-07-02T00:09:35;9.40;;;8.75;;
11935;SDS011;6027;48.576;9.180;2023-07-02T00:12:01;10.63;;;9.85;;
11935;SDS011;6027;48.576;9.180;2023-07-02T00:14:26;8.02;;;7.53;;
11935;SDS011;6027;48.576;9.180;2023-07-02T00:16:52;10.13;;;9.48;;
11935;SDS011;6027;48.576;9.180;2023-07-02T00:19:17;8.60;;;8.00;;
11935;SDS011;6027;48.576;9.180;2023-07-02T00:21:52;8.88;;;8.38;;
11935;SDS011;6027;48.576;9.180;2023-07-02T00:24:18;9.77;;;8.65;;
11935;SDS011;6027;48.576;9.180;2023-07-02T00:26:44;9.93;;;9.18;;
11935;SDS011;6027;48.576;9.180;2023-07-02T00:29:10;8.20;;;7.57;;
11935;SDS011;6027;48.576;9.180;2023-07-02T00:31:35;9.73;;;9.02;;
11935;SDS011;6027;48.576;9.180;2023-07-02T00:34:01;11.23;;;10.38;;
11935;SDS011;6027;48.576;9.180;2023-07-02T00:36:28;8.55;;;7.95;;
11935;SDS011;6027;48.576;9.180;2023-07-02T00:38:56;9.13;;;8.55;;
11935;SDS011;6027;48.576;9.180;2023-07-02T00:41:22;9.63;;;9.02;;
11935;SDS011;6027;48.576;9.180;2023-07-02T00:43:48;9.38;;;8.77;;
11935;SDS011;6027;48.576;9.180;2023-07-02T00:46:15;8.80;;;8.18;;
11935;SDS011;6027;48.576;9.180;2023-07-02T00:48:49;11.85;;;9.38;;
11935;SDS011;6027;48.576;9.180;2023-07-02T00:51:23;8.65;;;7.97;;
11935;SDS011;6027;48.576;9.180;2023-07-02T00:53:51;8.68;;;8.05;;
11935;SDS011;6027;48.576;9.180;2023-07-02T00:56:18;7.47;;;6.88;;
11935;SDS011;6027;48.576;9.180;2023-07-02T00:58:45;8.82;;;8.25;;
11935;SDS011;6027;48.576;9.180;2023-07-02T01:01:20;7.40;;;6.90;;
11935;SDS011;6027;48.576;9.180;2023-07-02T01:06:27;7.65;;;7.05;;
11935;SDS011;6027;48.576;9.180;2023-07-02T01:09:00;7.80;;;7.22;;
11935;SDS011;6027;48.576;9.180;2023-07-02T01:11:32;7.75;;;7.22;;
11935;SDS011;6027;48.576;9.180;2023-07-02T01:14:08;9.00;;;8.35;;
11935;SDS011;6027;48.576;9.180;2023-07-02T01:16:37;9.27;;;8.48;;
11935;SDS011;6027;48.576;9.180;2023-07-02T01:19:11;10.10;;;9.32;;
11935;SDS011;6027;48.576;9.180;2023-07-02T01:21:38;9.70;;;9.10;;
11935;SDS011;6027;48.576;9.180;2023-07-02T01:24:04;8.68;;;7.97;;
11935;SDS011;6027;48.576;9.180;2023-07-02T01:26:30;8.52;;;7.97;;
11935;SDS011;6027;48.576;9.180;2023-07-02T01:28:59;8.55;;;8.05;;
11935;SDS011;6027;48.576;9.180;2023-07-02T01:31:36;9.25;;;8.60;;
11935;SDS011;6027;48.576;9.180;2023-07-02T01:34:01;8.85;;;7.95;;
11935;SDS011;6027;48.576;9.180;2023-07-02T01:36:29;8.10;;;7.47;;
11935;SDS011;6027;48.576;9.180;2023-07-02T01:38:55;9.00;;;8.40;;
11935;SDS011;6027;48.576;9.180;2023-07-02T01:41:20;10.32;;;9.43;;
11935;SDS011;6027;48.576;9.180;2023-07-02T01:43:46;9.85;;;9.23;;
11935;SDS011;6027;48.576;9.180;2023-07-02T01:46:11;8.95;;;7.15;;
11935;SDS011;6027;48.576;9.180;2023-07-02T01:48:36;8.82;;;8.13;;
11935;SDS011;6027;48.576;9.180;2023-07-02T01:51:02;9.90;;;9.15;;
11935;SDS011;6027;48.576;9.180;2023-07-02T01:53:28;9.52;;;8.75;;
11935;SDS011;6027;48.576;9.180;2023-07-02T01:55:53;8.93;;;8.23;;
11935;SDS011;6027;48.576;9.180;2023-07-02T01:58:19;7.70;;;7.10;;
11935;SDS011;6027;48.576;9.180;2023-07-02T02:00:45;7.97;;;7.40;;
11935;SDS011;6027;48.576;9.180;2023-07-02T02:03:10;7.72;;;7.22;;
11935;SDS011;6027;48.576;9.180;2023-07-02T02:05:36;9.57;;;8.77;;
11935;SDS011;6027;48.576;9.180;2023-07-02T02:08:01;8.30;;;7.70;;
11935;SDS011;6027;48.576;9.180;2023-07-02T02:10:27;10.07;;;9.30;;
11935;SDS011;6027;48.576;9.180;2023-07-02T02:12:52;7.78;;;7.32;;
11935;SDS011;6027;48.576;9.180;2023-07-02T02:15:18;9.02;;;8.43;;
11935;SDS011;6027;48.576;9.180;2023-07-02T02:17:43;9.98;;;9.07;;
11935;SDS011;6027;48.576;9.180;2023-07-02T02:20:10;8.65;;;7.88;;
11935;SDS011;6027;48.576;9.180;2023-07-02T02:22:36;8.00;;;7.43;;
11935;SDS011;6027;48.576;9.180;2023-07-02T02:25:02;9.18;;;8.45;;
11935;SDS011;6027;48.576;9.180;2023-07-02T02:27:28;8.88;;;8.18;;
11935;SDS011;6027;48.576;9.180;2023-07-02T02:29:54;9.82;;;8.93;;
11935;SDS011;6027;48.576;9.180;2023-07-02T02:32:19;7.22;;;6.63;;
11935;SDS011;6027;48.576;9.180;2023-07-02T02:34:46;9.25;;;8.65;;
11935;SDS011;6027;48.576;9.180;2023-07-02T02:37:12;8.32;;;7.72;;
11935;SDS011;6027;48.576;9.180;2023-07-02T02:39:37;8.68;;;8.00;;
11935;SDS011;6027;48.576;9.180;2023-07-02T02:42:03;8.60;;;8.00;;
11935;SDS011;6027;48.576;9.180;2023-07-02T02:44:29;8.88;;;8.18;;
11935;SDS011;6027;48.576;9.180;2023-07-02T02:46:54;9.93;;;9.25;;
11935;SDS011;6027;48.576;9.180;2023-07-02T02:49:20;9.07;;;8.38;;
11935;SDS011;6027;48.576;9.180;2023-07-02T02:51:46;9.05;;;8.45;;
11935;SDS011;6027;48.576;9.180;2023-07-02T02:54:11;8.93;;;8.32;;
11935;SDS011;6027;48.576;9.180;2023-07-02T02:56:37;8.70;;;8.00;;
11935;SDS011;6027;48.576;9.180;2023-07-02T02:59:02;7.18;;;6.50;;
11935;SDS011;6027;48.576;9.180;2023-07-02T03:01:28;8.75;;;7.85;;
11935;SDS011;6027;48.576;9.180;2023-07-02T03:04:15;8.57;;;7.88;;
11935;SDS011;6027;48.576;9.180;2023-07-02T03:07:01;7.82;;;7.15;;
11935;SDS011;6027;48.576;9.180;2023-07-02T03:09:46;10.15;;;9.23;;
11935;SDS011;6027;48.576;9.180;2023-07-02T03:12:31;9.30;;;8.70;;
11935;SDS011;6027;48.576;9.180;2023-07-02T03:15:15;8.88;;;8.25;;
11935;SDS011;6027;48.576;9.180;2023-07-02T03:17:42;8.55;;;7.75;;
11935;SDS011;6027;48.576;9.180;2023-07-02T03:20:08;9.50;;;8.80;;
11935;SDS011;6027;48.576;9.180;2023-07-02T03:22:53;8.45;;;7.80;;
11935;SDS011;6027;48.576;9.180;2023-07-02T03:25:19;8.82;;;8.05;;
11935;SDS011;6027;48.576;9.180;2023-07-02T03:27:44;6.75;;;6.25;;
11935;SDS011;6027;48.576;9.180;2023-07-02T03:30:10;8.00;;;7.30;;
11935;SDS011;6027;48.576;9.180;2023-07-02T03:32:36;8.90;;;8.13;;
11935;SDS011;6027;48.576;9.180;2023-07-02T03:35:01;7.85;;;7.25;;
11935;SDS011;6027;48.576;9.180;2023-07-02T03:37:27;6.68;;;6.15;;
11935;SDS011;6027;48.576;9.180;2023-07-02T03:39:53;7.80;;;7.25;;
11935;SDS011;6027;48.576;9.180;2023-07-02T03:42:18;7.80;;;7.28;;
11935;SDS011;6027;48.576;9.180;2023-07-02T03:44:44;8.52;;;7.88;;
11935;SDS011;6027;48.576;9.180;2023-07-02T03:47:09;8.90;;;8.07;;
11935;SDS011;6027;48.576;9.180;2023-07-02T03:49:37;10.77;;;9.73;;
11935;SDS011;6027;48.576;9.180;2023-07-02T03:52:03;11.32;;;10.45;;
11935;SDS011;6027;48.576;9.180;2023-07-02T03:54:28;10.18;;;9.27;;
11935;SDS011;6027;48.576;9.180;2023-07-02T03:56:54;8.95;;;8.30;;
11935;SDS011;6027;48.576;9.180;2023-07-02T03:59:19;9.05;;;8.20;;
11935;SDS011;6027;48.576;9.180;2023-07-02T04:01:44;8.45;;;7.70;;
11935;SDS011;6027;48.576;9.180;2023-07-02T04:04:10;9.48;;;8.57;;
11935;SDS011;6027;48.576;9.180;2023-07-02T04:06:36;9.68;;;8.77;;
11935;SDS011;6027;48.576;9.180;2023-07-02T04:09:02;10.80;;;10.00;;
11935;SDS011;6027;48.576;9.180;2023-07-02T04:11:29;10.77;;;10.07;;
11935;SDS011;6027;48.576;9.180;2023-07-02T04:13:54;10.32;;;9.50;;
11935;SDS011;6027;48.576;9.180;2023-07-02T04:16:20;10.63;;;9.73;;
11935;SDS011;6027;48.576;9.180;2023-07-02T04:18:45;11.93;;;11.00;;
11935;SDS011;6027;48.576;9.180;2023-07-02T04:21:11;8.88;;;8.10;;
11935;SDS011;6027;48.576;9.180;2023-07-02T04:23:36;9.23;;;8.57;;
11935;SDS011;6027;48.576;9.180;2023-07-02T04:26:02;8.75;;;8.05;;
11935;SDS011;6027;48.576;9.180;2023-07-02T04:28:27;10.38;;;9.68;;
11935;SDS011;6027;48.576;9.180;2023-07-02T04:30:53;10.32;;;9.60;;
11935;SDS011;6027;48.576;9.180;2023-07-02T04:33:18;9.70;;;9.05;;
11935;SDS011;6027;48.576;9.180;2023-07-02T04:35:44;8.82;;;8.15;;
11935;SDS011;6027;48.576;9.180;2023-07-02T04:38:09;7.97;;;7.47;;
11935;SDS011;6027;48.576;9.180;2023-07-02T04:40:35;7.60;;;6.57;;
11935;SDS011;6027;48.576;9.180;2023-07-02T04:43:00;10.23;;;9.48;;
11935;SDS011;6027;48.576;9.180;2023-07-02T04:45:26;10.15;;;9.27;;
11935;SDS011;6027;48.576;9.180;2023-07-02T04:47:52;10.25;;;9.38;;
11935;SDS011;6027;48.576;9.180;2023-07-02T04:50:17;10.15;;;9.25;;
11935;SDS011;6027;48.576;9.180;2023-07-02T04:52:43;9.68;;;8.88;;
11935;SDS011;6027;48.576;9.180;2023-07-02T04:55:09;9.88;;;9.07;;
11935;SDS011;6027;48.576;9.180;2023-07-02T04:57:34;8.98;;;8.38;;
11935;SDS011;6027;48.576;9.180;2023-07-02T05:00:00;11.15;;;9.45;;
11935;SDS011;6027;48.576;9.180;2023-07-02T05:02:26;11.85;;;10.82;;
11935;SDS011;6027;48.576;9.180;2023-07-02T05:04:51;8.98;;;8.38;;
11935;SDS011;6027;48.576;9.180;2023-07-02T05:07:17;9.90;;;9.15;;
11935;SDS011;6027;48.576;9.180;2023-07-02T05:09:42;11.18;;;10.27;;
11935;SDS011;6027;48.576;9.180;2023-07-02T05:12:08;10.15;;;9.48;;
11935;SDS011;6027;48.576;9.180;2023-07-02T05:14:34;9.48;;;8.75;;
11935;SDS011;6027;48.576;9.180;2023-07-02T05:16:59;8.68;;;8.00;;
11935;SDS011;6027;48.576;9.180;2023-07-02T05:19:25;9.70;;;8.20;;
11935;SDS011;6027;48.576;9.180;2023-07-02T05:21:50;9.45;;;8.80;;
11935;SDS011;6027;48.576;9.180;2023-07-02T05:24:16;12.10;;;11.30;;
11935;SDS011;6027;48.576;9.180;2023-07-02T05:26:41;10.93;;;9.98;;
11935;SDS011;6027;48.576;9.180;2023-07-02T05:29:07;10.70;;;9.80;;
11935;SDS011;6027;48.576;9.180;2023-07-02T05:31:32;12.45;;;11.55;;
11935;SDS011;6027;48.576;9.180;2023-07-02T05:33:59;8.63;;;7.82;;
11935;SDS011;6027;48.576;9.180;2023-07-02T05:36:25;10.63;;;9.85;;
11935;SDS011;6027;48.576;9.180;2023-07-02T05:38:50;11.38;;;10.57;;
11935;SDS011;6027;48.576;9.180;2023-07-02T05:41:19;8.02;;;7.32;;
11935;SDS011;6027;48.576;9.180;2023-07-02T05:43:47;11.07;;;10.02;;
11935;SDS011;6027;48.576;9.180;2023-07-02T05:46:13;9.35;;;8.55;;
11935;SDS011;6027;48.576;9.180;2023-07-02T05:48:40;9.77;;;9.05;;
11935;SDS011;6027;48.576;9.180;2023-07-02T05:51:06;10.43;;;9.80;;
11935;SDS011;6027;48.576;9.180;2023-07-02T05:53:32;8.18;;;7.60;;
11935;SDS011;6027;48.576;9.180;2023-07-02T05:55:58;10.80;;;10.00;;
11935;SDS011;6027;48.576;9.180;2023-07-02T05:58:23;8.90;;;8.38;;
11935;SDS011;6027;48.576;9.180;2023-07-02T06:00:49;7.28;;;6.55;;
11935;SDS011;6027;48.576;9.180;2023-07-02T06:03:15;9.68;;;8.80;;
11935;SDS011;6027;48.576;9.180;2023-07-02T06:05:45;8.98;;;7.95;;
11935;SDS011;6027;48.576;9.180;2023-07-02T06:08:12;11.43;;;10.52;;
11935;SDS011;6027;48.576;9.180;2023-07-02T06:10:38;10.80;;;10.07;;
11935;SDS011;6027;48.576;9.180;2023-07-02T06:13:03;10.93;;;10.13;;
11935;SDS011;6027;48.576;9.180;2023-07-02T06:15:28;8.82;;;8.25;;
11935;SDS011;6027;48.576;9.180;2023-07-02T06:17:54;9.85;;;9.07;;
11935;SDS011;6027;48.576;9.180;2023-07-02T06:20:19;9.55;;;8.93;;
11935;SDS011;6027;48.576;9.180;2023-07-02T06:22:44;10.07;;;9.38;;
11935;SDS011;6027;48.576;9.180;2023-07-02T06:25:10;10.63;;;9.85;;
11935;SDS011;6027;48.576;9.180;2023-07-02T06:27:35;11.23;;;10.38;;
11935;SDS011;6027;48.576;9.180;2023-07-02T06:30:01;10.52;;;9.75;;
11935;SDS011;6027;48.576;9.180;2023-07-02T06:32:26;10.57;;;9.75;;
11935;SDS011;6027;48.576;9.180;2023-07-02T06:34:52;11.45;;;10.57;;
11935;SDS011;6027;48.576;9.180;2023-07-02T06:37:20;11.23;;;10.40;;
11935;SDS011;6027;48.576;9.180;2023-07-02T06:39:46;10.02;;;9.23;;
11935;SDS011;6027;48.576;9.180;2023-07-02T06:42:11;10.77;;;9.82;;
11935;SDS011;6027;48.576;9.180;2023-07-02T06:44:37;9.35;;;8.57;;
11935;SDS011;6027;48.576;9.180;2023-07-02T06:47:02;10.48;;;9.73;;
11935;SDS011;6027;48.576;9.180;2023-07-02T06:49:28;12.00;;;8.65;;
11935;SDS011;6027;48.576;9.180;2023-07-02T06:51:53;9.05;;;8.20;;
11935;SDS011;6027;48.576;9.180;2023-07-02T06:54:18;10.50;;;9.40;;
11935;SDS011;6027;48.576;9.180;2023-07-02T06:56:44;11.38;;;10.27;;
11935;SDS011;6027;48.576;9.180;2023-07-02T06:59:09;11.63;;;10.63;;
11935;SDS011;6027;48.576;9.180;2023-07-02T07:01:34;12.63;;;10.43;;
11935;SDS011;6027;48.576;9.180;2023-07-02T07:04:01;12.18;;;11.07;;
11935;SDS011;6027;48.576;9.180;2023-07-02T07:06:28;12.40;;;11.30;;
11935;SDS011;6027;48.576;9.180;2023-07-02T07:08:54;11.93;;;10.75;;
11935;SDS011;6027;48.576;9.180;2023-07-02T07:11:20;13.10;;;11.82;;
11935;SDS011;6027;48.576;9.180;2023-07-02T07:13:45;13.82;;;11.98;;
11935;SDS011;6027;48.576;9.180;2023-07-02T07:16:11;13.25;;;11.85;;
11935;SDS011;6027;48.576;9.180;2023-07-02T07:18:37;16.20;;;13.75;;
11935;SDS011;6027;48.576;9.180;2023-07-02T07:21:02;15.88;;;11.98;;
11935;SDS011;6027;48.576;9.180;2023-07-02T07:23:28;11.85;;;10.82;;
11935;SDS011;6027;48.576;9.180;2023-07-02T07:25:53;11.85;;;10.65;;
11935;SDS011;6027;48.576;9.180;2023-07-02T07:28:18;12.20;;;11.00;;
11935;SDS011;6027;48.576;9.180;2023-07-02T07:30:44;12.85;;;11.48;;
11935;SDS011;6027;48.576;9.180;2023-07-02T07:33:10;11.55;;;10.40;;
11935;SDS011;6027;48.576;9.180;2023-07-02T07:35:35;15.18;;;11.70;;
11935;SDS011;6027;48.576;9.180;2023-07-02T07:38:01;12.63;;;11.32;;
11935;SDS011;6027;48.576;9.180;2023-07-02T07:40:27;12.60;;;11.30;;
11935;SDS011;6027;48.576;9.180;2023-07-02T07:42:53;14.48;;;12.98;;
11935;SDS011;6027;48.576;9.180;2023-07-02T07:45:18;14.10;;;12.73;;
11935;SDS011;6027;48.576;9.180;2023-07-02T07:47:44;15.48;;;12.48;;
11935;SDS011;6027;48.576;9.180;2023-07-02T07:50:09;16.65;;;13.52;;
11935;SDS011;6027;48.576;9.180;2023-07-02T07:52:36;15.90;;;13.25;;
11935;SDS011;6027;48.576;9.180;2023-07-02T07:55:02;18.17;;;11.40;;
11935;SDS011;6027;48.576;9.180;2023-07-02T07:57:28;15.13;;;13.50;;
11935;SDS011;6027;48.576;9.180;2023-07-02T07:59:53;16.30;;;14.57;;
11935;SDS011;6027;48.576;9.180;2023-07-02T08:02:19;15.20;;;13.38;;
11935;SDS011;6027;48.576;9.180;2023-07-02T08:04:44;18.50;;;13.38;;
11935;SDS011;6027;48.576;9.180;2023-07-02T08:07:09;20.08;;;14.35;;
11935;SDS011;6027;48.576;9.180;2023-07-02T08:09:35;19.23;;;13.15;;
11935;SDS011;6027;48.576;9.180;2023-07-02T08:12:00;15.32;;;12.05;;
11935;SDS011;6027;48.576;9.180;2023-07-02T08:14:28;16.13;;;11.77;;
11935;SDS011;6027;48.576;9.180;2023-07-02T08:16:53;16.70;;;13.02;;
11935;SDS011;6027;48.576;9.180;2023-07-02T08:19:19;17.98;;;16.05;;
11935;SDS011;6027;48.576;9.180;2023-07-02T08:21:45;17.13;;;14.60;;
11935;SDS011;6027;48.576;9.180;2023-07-02T08:24:10;15.23;;;12.55;;
11935;SDS011;6027;48.576;9.180;2023-07-02T08:26:36;13.90;;;12.50;;
11935;SDS011;6027;48.576;9.180;2023-07-02T08:29:02;14.63;;;13.15;;
11935;SDS011;6027;48.576;9.180;2023-07-02T08:31:27;15.82;;;13.52;;
11935;SDS011;6027;48.576;9.180;2023-07-02T08:33:53;17.13;;;15.40;;
11935;SDS011;6027;48.576;9.180;2023-07-02T08:36:18;15.73;;;13.68;;
11935;SDS011;6027;48.576;9.180;2023-07-02T08:38:44;17.00;;;14.50;;
11935;SDS011;6027;48.576;9.180;2023-07-02T08:41:09;15.50;;;12.48;;
11935;SDS011;6027;48.576;9.180;2023-07-02T08:43:35;13.48;;;11.90;;
11935;SDS011;6027;48.576;9.180;2023-07-02T08:46:00;15.15;;;13.25;;
11935;SDS011;6027;48.576;9.180;2023-07-02T08:48:26;13.65;;;12.25;;
11935;SDS011;6027;48.576;9.180;2023-07-02T08:50:54;12.77;;;11.27;;
11935;SDS011;6027;48.576;9.180;2023-07-02T08:53:21;14.93;;;13.35;;
11935;SDS011;6027;48.576;9.180;2023-07-02T08:55:57;19.77;;;11.73;;
11935;SDS011;6027;48.576;9.180;2023-07-02T08:58:27;14.68;;;13.07;;
11935;SDS011;6027;48.576;9.180;2023-07-02T09:03:38;16.90;;;15.20;;
11935;SDS011;6027;48.576;9.180;2023-07-02T09:06:04;15.75;;;13.98;;
11935;SDS011;6027;48.576;9.180;2023-07-02T09:08:31;14.30;;;11.45;;
11935;SDS011;6027;48.576;9.180;2023-07-02T09:11:32;14.70;;;13.05;;
11935;SDS011;6027;48.576;9.180;2023-07-02T09:13:51;17.20;;;13.90;;
11935;SDS011;6027;48.576;9.180;2023-07-02T09:16:29;17.60;;;13.85;;
11935;SDS011;6027;48.576;9.180;2023-07-02T09:19:06;14.55;;;12.88;;
11935;SDS011;6027;48.576;9.180;2023-07-02T09:21:43;15.52;;;13.82;;
11935;SDS011;6027;48.576;9.180;2023-07-02T09:24:14;13.70;;;12.35;;
11935;SDS011;6027;48.576;9.180;2023-07-02T09:26:48;19.92;;;14.85;;
11935;SDS011;6027;48.576;9.180;2023-07-02T09:29:18;16.00;;;13.10;;
11935;SDS011;6027;48.576;9.180;2023-07-02T09:31:48;16.65;;;14.38;;
11935;SDS011;6027;48.576;9.180;2023-07-02T09:34:14;14.57;;;12.13;;
11935;SDS011;6027;48.576;9.180;2023-07-02T09:36:40;15.90;;;13.32;;
11935;SDS011;6027;48.576;9.180;2023-07-02T09:39:13;13.45;;;12.05;;
11935;SDS011;6027;48.576;9.180;2023-07-02T09:41:40;14.95;;;13.48;;
11935;SDS011;6027;48.576;9.180;2023-07-02T09:44:08;15.40;;;13.80;;
11935;SDS011;6027;48.576;9.180;2023-07-02T09:46:36;14.77;;;12.85;;
11935;SDS011;6027;48.576;9.180;2023-07-02T09:49:02;15.35;;;13.05;;
11935;SDS011;6027;48.576;9.180;2023-07-02T09:51:28;17.58;;;14.90;;
11935;SDS011;6027;48.576;9.180;2023-07-02T09:53:54;17.90;;;16.00;;
11935;SDS011;6027;48.576;9.180;2023-07-02T09:56:19;16.55;;;14.63;;
11935;SDS011;6027;48.576;9.180;2023-07-02T09:58:46;16.92;;;15.00;;
11935;SDS011;6027;48.576;9.180;2023-07-02T10:01:12;16.25;;;14.35;;
11935;SDS011;6027;48.576;9.180;2023-07-02T10:03:37;20.55;;;15.05;;
11935;SDS011;6027;48.576;9.180;2023-07-02T10:06:06;21.58;;;17.30;;
11935;SDS011;6027;48.576;9.180;2023-07-02T10:08:32;19.65;;;17.05;;
11935;SDS011;6027;48.576;9.180;2023-07-02T10:11:11;18.40;;;16.50;;
11935;SDS011;6027;48.576;9.180;2023-07-02T10:13:39;19.50;;;17.42;;
11935;SDS011;6027;48.576;9.180;2023-07-02T10:16:05;18.75;;;16.80;;
11935;SDS011;6027;48.576;9.180;2023-07-02T10:18:31;19.38;;;17.38;;
11935;SDS011;6027;48.576;9.180;2023-07-02T10:20:57;16.48;;;14.88;;
11935;SDS011;6027;48.576;9.180;2023-07-02T10:23:33;16.83;;;14.95;;
11935;SDS011;6027;48.576;9.180;2023-07-02T10:26:10;17.35;;;15.32;;
11935;SDS011;6027;48.576;9.180;2023-07-02T10:28:38;16.85;;;14.23;;
11935;SDS011;6027;48.576;9.180;2023-07-02T10:31:04;22.38;;;16.52;;
11935;SDS011;6027;48.576;9.180;2023-07-02T10:33:29;17.08;;;15.40;;
11935;SDS011;6027;48.576;9.180;2023-07-02T10:35:54;16.27;;;14.20;;
11935;SDS011;6027;48.576;9.180;2023-07-02T10:38:21;19.88;;;16.23;;
11935;SDS011;6027;48.576;9.180;2023-07-02T10:40:57;21.35;;;16.27;;
11935;SDS011;6027;48.576;9.180;2023-07-02T10:43:31;17.55;;;15.68;;
11935;SDS011;6027;48.576;9.180;2023-07-02T10:45:57;19.67;;;16.40;;
11935;SDS011;6027;48.576;9.180;2023-07-02T10:48:28;19.13;;;17.10;;
11935;SDS011;6027;48.576;9.180;2023-07-02T10:50:54;20.42;;;18.23;;
11935;SDS011;6027;48.576;9.180;2023-07-02T10:53:19;19.63;;;17.27;;
11935;SDS011;6027;48.576;9.180;2023-07-02T10:55:45;20.60;;;18.48;;
11935;SDS011;6027;48.576;9.180;2023-07-02T10:58:18;18.27;;;16.40;;
11935;SDS011;6027;48.576;9.180;2023-07-02T11:00:47;19.80;;;16.88;;
11935;SDS011;6027;48.576;9.180;2023-07-02T11:03:17;21.00;;;16.10;;
11935;SDS011;6027;48.576;9.180;2023-07-02T11:05:47;20.63;;;18.33;;
11935;SDS011;6027;48.576;9.180;2023-07-02T11:08:13;21.70;;;17.52;;
11935;SDS011;6027;48.576;9.180;2023-07-02T11:10:39;20.88;;;18.63;;
11935;SDS011;6027;48.576;9.180;2023-07-02T11:13:17;21.15;;;18.77;;
11935;SDS011;6027;48.576;9.180;2023-07-02T11:15:44;19.42;;;17.30;;
11935;SDS011;6027;48.576;9.180;2023-07-02T11:18:13;20.33;;;18.05;;
11935;SDS011;6027;48.576;9.180;2023-07-02T11:20:41;20.02;;;17.95;;
11935;SDS011;6027;48.576;9.180;2023-07-02T11:23:21;20.35;;;18.25;;
11935;SDS011;6027;48.576;9.180;2023-07-02T11:25:54;21.70;;;19.40;;
11935;SDS011;6027;48.576;9.180;2023-07-02T11:28:23;20.13;;;18.00;;
11935;SDS011;6027;48.576;9.180;2023-07-02T11:31:02;20.50;;;18.35;;
11935;SDS011;6027;48.576;9.180;2023-07-02T11:33:35;20.10;;;17.88;;
11935;SDS011;6027;48.576;9.180;2023-07-02T11:36:01;19.20;;;16.73;;
11935;SDS011;6027;48.576;9.180;2023-07-02T11:38:27;20.55;;;17.00;;
11935;SDS011;6027;48.576;9.180;2023-07-02T11:40:53;19.48;;;17.30;;
11935;SDS011;6027;48.576;9.180;2023-07-02T11:43:18;21.17;;;19.23;;
11935;SDS011;6027;48.576;9.180;2023-07-02T11:45:44;19.95;;;17.35;;
11935;SDS011;6027;48.576;9.180;2023-07-02T11:48:10;20.40;;;17.67;;
11935;SDS011;6027;48.576;9.180;2023-07-02T11:50:35;21.08;;;18.65;;
11935;SDS011;6027;48.576;9.180;2023-07-02T11:53:00;20.35;;;18.25;;
11935;SDS011;6027;48.576;9.180;2023-07-02T11:55:26;20.85;;;17.10;;
11935;SDS011;6027;48.576;9.180;2023-07-02T11:57:51;20.70;;;18.55;;
11935;SDS011;6027;48.576;9.180;2023-07-02T12:00:17;17.45;;;15.63;;
11935;SDS011;6027;48.576;9.180;2023-07-02T12:02:43;17.83;;;15.93;;
11935;SDS011;6027;48.576;9.180;2023-07-02T12:05:08;19.05;;;16.50;;
11935;SDS011;6027;48.576;9.180;2023-07-02T12:07:34;18.60;;;15.93;;
11935;SDS011;6027;48.576;9.180;2023-07-02T12:10:00;18.45;;;16.23;;
11935;SDS011;6027;48.576;9.180;2023-07-02T12:12:25;16.75;;;15.05;;
11935;SDS011;6027;48.576;9.180;2023-07-02T12:14:51;18.00;;;16.25;;
11935;SDS011;6027;48.576;9.180;2023-07-02T12:17:16;18.15;;;15.80;;
11935;SDS011;6027;48.576;9.180;2023-07-02T12:19:42;17.35;;;15.55;;
11935;SDS011;6027;48.576;9.180;2023-07-02T12:22:07;20.58;;;15.82;;
11935;SDS011;6027;48.576;9.180;2023-07-02T12:24:33;16.30;;;14.63;;
11935;SDS011;6027;48.576;9.180;2023-07-02T12:26:58;18.13;;;16.35;;
11935;SDS011;6027;48.576;9.180;2023-07-02T12:29:24;18.05;;;16.33;;
11935;SDS011;6027;48.576;9.180;2023-07-02T12:31:49;17.00;;;14.23;;
11935;SDS011;6027;48.576;9.180;2023-07-02T12:34:15;18.08;;;16.17;;
11935;SDS011;6027;48.576;9.180;2023-07-02T12:36:40;16.02;;;14.35;;
11935;SDS011;6027;48.576;9.180;2023-07-02T12:39:06;19.80;;;15.52;;
11935;SDS011;6027;48.576;9.180;2023-07-02T12:41:32;17.92;;;16.02;;
11935;SDS011;6027;48.576;9.180;2023-07-02T12:43:58;16.42;;;14.73;;
11935;SDS011;6027;48.576;9.180;2023-07-02T12:46:24;16.25;;;14.70;;
11935;SDS011;6027;48.576;9.180;2023-07-02T12:48:49;18.63;;;15.82;;
11935;SDS011;6027;48.576;9.180;2023-07-02T12:51:16;16.88;;;15.20;;
11935;SDS011;6027;48.576;9.180;2023-07-02T12:53:41;16.98;;;15.18;;
11935;SDS011;6027;48.576;9.180;2023-07-02T12:56:07;17.95;;;14.32;;
11935;SDS011;6027;48.576;9.180;2023-07-02T12:58:32;18.58;;;16.58;;
11935;SDS011;6027;48.576;9.180;2023-07-02T13:00:58;16.98;;;15.18;;
11935;SDS011;6027;48.576;9.180;2023-07-02T13:03:23;17.23;;;15.40;;
11935;SDS011;6027;48.576;9.180;2023-07-02T13:05:51;17.73;;;15.95;;
11935;SDS011;6027;48.576;9.180;2023-07-02T13:08:16;18.05;;;15.80;;
11935;SDS011;6027;48.576;9.180;2023-07-02T13:10:42;15.88;;;13.95;;
11935;SDS011;6027;48.576;9.180;2023-07-02T13:13:07;19.15;;;14.80;;
11935;SDS011;6027;48.576;9.180;2023-07-02T13:15:33;16.10;;;14.30;;
11935;SDS011;6027;48.576;9.180;2023-07-02T13:18:00;16.67;;;14.95;;
11935;SDS011;6027;48.576;9.180;2023-07-02T13:20:25;16.58;;;14.88;;
11935;SDS011;6027;48.576;9.180;2023-07-02T13:22:51;16.63;;;14.85;;
11935;SDS011;6027;48.576;9.180;2023-07-02T13:25:16;15.10;;;13.55;;
11935;SDS011;6027;48.576;9.180;2023-07-02T13:27:42;16.05;;;14.35;;
11935;SDS011;6027;48.576;9.180;2023-07-02T13:30:07;18.95;;;15.98;;
11935;SDS011;6027;48.576;9.180;2023-07-02T13:32:33;18.13;;;16.38;;
11935;SDS011;6027;48.576;9.180;2023-07-02T13:34:58;16.02;;;14.32;;
11935;SDS011;6027;48.576;9.180;2023-07-02T13:37:24;19.70;;;17.67;;
11935;SDS011;6027;48.576;9.180;2023-07-02T13:39:49;16.92;;;15.00;;
11935;SDS011;6027;48.576;9.180;2023-07-02T13:42:15;16.83;;;15.13;;
11935;SDS011;6027;48.576;9.180;2023-07-02T13:44:41;18.58;;;16.75;;
11935;SDS011;6027;48.576;9.180;2023-07-02T13:47:07;18.00;;;16.20;;
11935;SDS011;6027;48.576;9.180;2023-07-02T13:49:32;18.40;;;16.50;;
11935;SDS011;6027;48.576;9.180;2023-07-02T13:51:58;17.73;;;15.93;;
11935;SDS011;6027;48.576;9.180;2023-07-02T13:54:24;17.52;;;15.88;;
11935;SDS011;6027;48.576;9.180;2023-07-02T13:56:49;18.77;;;15.98;;
11935;SDS011;6027;48.576;9.180;2023-07-02T13:59:15;17.95;;;15.95;;
11935;SDS011;6027;48.576;9.180;2023-07-02T14:01:41;18.92;;;17.02;;
11935;SDS011;6027;48.576;9.180;2023-07-02T14:04:07;19.80;;;17.65;;
11935;SDS011;6027;48.576;9.180;2023-07-02T14:06:33;19.73;;;17.08;;
11935;SDS011;6027;48.576;9.180;2023-07-02T14:08:59;18.15;;;16.33;;
11935;SDS011;6027;48.576;9.180;2023-07-02T14:11:24;19.08;;;16.88;;
11935;SDS011;6027;48.576;9.180;2023-07-02T14:13:53;18.30;;;16.48;;
11935;SDS011;6027;48.576;9.180;2023-07-02T14:16:19;18.17;;;16.27;;
11935;SDS011;6027;48.576;9.180;2023-07-02T14:18:44;17.85;;;16.08;;
11935;SDS011;6027;48.576;9.180;2023-07-02T14:21:10;17.30;;;15.60;;
11935;SDS011;6027;48.576;9.180;2023-07-02T14:23:35;18.35;;;16.38;;
11935;SDS011;6027;48.576;9.180;2023-07-02T14:26:01;17.75;;;15.95;;
11935;SDS011;6027;48.576;9.180;2023-07-02T14:28:26;17.92;;;16.13;;
11935;SDS011;6027;48.576;9.180;2023-07-02T14:31:03;17.38;;;15.57;;
11935;SDS011;6027;48.576;9.180;2023-07-02T14:33:31;18.08;;;13.80;;
11935;SDS011;6027;48.576;9.180;2023-07-02T14:35:58;17.20;;;15.50;;
11935;SDS011;6027;48.576;9.180;2023-07-02T14:38:25;17.38;;;15.77;;
11935;SDS011;6027;48.576;9.180;2023-07-02T14:40:50;17.70;;;15.75;;
11935;SDS011;6027;48.576;9.180;2023-07-02T14:43:16;18.05;;;15.77;;
11935;SDS011;6027;48.576;9.180;2023-07-02T14:45:49;17.08;;;15.43;;
11935;SDS011;6027;48.576;9.180;2023-07-02T14:48:18;17.05;;;15.30;;